Time;durP1;ratioP1;P1;durP2;ratioP2;P2;SDS_P1;SDS_P2;PMS_P1;PMS_P2;Temp;Humidity;BMP_temperature;BMP_pressure;BME280_temperature;BME280_humidity;BME280_pressure;Samples;Min_cycle;Max_cycle;Signal;HPM_P1;HPM_P2
2021/04/27 00:01:57;;;;;;;3.22;1.23;;;6.40;56.30;;;;;;4962310;28;20050;-68
2021/04/27 00:04:22;;;;;;;1.95;0.80;;;6.40;56.30;;;;;;4963366;28;20453;-68
2021/04/27 00:06:49;;;;;;;5.22;1.20;;;6.40;56.20;;;;;;4960465;28;20026;-69
2021/04/27 00:09:15;;;;;;;2.08;1.10;;;6.40;56.50;;;;;;4960867;28;20436;-68
2021/04/27 00:11:41;;;;;;;4.80;1.40;;;6.40;56.70;;;;;;4962779;28;20101;-69
2021/04/27 00:14:07;;;;;;;2.80;1.10;;;6.30;56.60;;;;;;4963275;28;20118;-68
2021/04/27 00:16:34;;;;;;;2.78;1.10;;;6.30;56.60;;;;;;4963609;28;20492;-69
2021/04/27 00:19:01;;;;;;;2.95;1.30;;;6.30;56.50;;;;;;4962250;28;20043;-69
2021/04/27 00:21:27;;;;;;;2.45;1.25;;;6.20;56.80;;;;;;4963247;28;20046;-68
2021/04/27 00:23:53;;;;;;;4.47;1.35;;;6.20;57.00;;;;;;4962188;28;20034;-68
2021/04/27 00:26:19;;;;;;;5.32;1.70;;;6.20;57.00;;;;;;4967141;28;20032;-69
2021/04/27 00:28:45;;;;;;;1.55;1.00;;;6.20;56.90;;;;;;4967395;28;20029;-69
2021/04/27 00:31:10;;;;;;;2.95;1.10;;;6.10;57.00;;;;;;4967728;28;20035;-69
2021/04/27 00:33:36;;;;;;;2.92;1.35;;;6.10;57.10;;;;;;4969402;28;20472;-68
2021/04/27 00:36:03;;;;;;;2.65;1.10;;;6.20;57.30;;;;;;4966262;28;20712;-68
2021/04/27 00:38:29;;;;;;;2.13;1.20;;;6.20;57.20;;;;;;4964646;28;20113;-68
2021/04/27 00:40:59;;;;;;;2.90;1.02;;;6.20;57.50;;;;;;4966982;28;20125;-69
2021/04/27 00:43:24;;;;;;;3.45;1.35;;;6.10;57.70;;;;;;4966969;28;20037;-68
2021/04/27 00:45:50;;;;;;;2.17;1.30;;;6.10;57.70;;;;;;4969470;28;20035;-69
2021/04/27 00:48:16;;;;;;;2.25;1.20;;;6.10;57.60;;;;;;4967489;28;20105;-69
2021/04/27 00:50:42;;;;;;;4.00;1.20;;;6.00;58.10;;;;;;4967742;28;20028;-69
2021/04/27 00:53:08;;;;;;;5.25;1.95;;;6.00;58.10;;;;;;4965352;28;20034;-69
2021/04/27 00:55:35;;;;;;;2.05;1.20;;;6.00;58.00;;;;;;4966727;28;20053;-69
2021/04/27 00:58:01;;;;;;;1.88;0.90;;;6.00;57.90;;;;;;4966688;28;20023;-68
2021/04/27 01:00:37;;;;;;;3.35;1.00;;;6.00;58.30;;;;;;4966582;28;20065;-69
2021/04/27 01:03:04;;;;;;;3.00;1.30;;;6.00;58.00;;;;;;4965944;28;20118;-69
2021/04/27 01:05:32;;;;;;;5.63;1.20;;;6.00;58.10;;;;;;4965687;28;20027;-68
2021/04/27 01:08:28;;;;;;;1.83;1.00;;;5.90;58.50;;;;;;4966253;28;20031;-68
2021/04/27 01:11:26;;;;;;;3.35;1.33;;;5.90;58.50;;;;;;4964249;28;20110;-69
2021/04/27 01:14:50;;;;;;;3.38;1.20;;;5.90;58.60;;;;;;4965253;28;20062;-69
2021/04/27 01:17:19;;;;;;;3.38;1.30;;;5.90;58.60;;;;;;4924777;29;20072;-69
2021/04/27 01:20:09;;;;;;;2.92;1.10;;;5.80;58.70;;;;;;4956513;28;20058;-69
2021/04/27 01:23:02;;;;;;;2.78;1.30;;;5.80;58.70;;;;;;4965831;28;20038;-69
2021/04/27 01:25:36;;;;;;;3.35;1.30;;;5.80;58.90;;;;;;4965476;28;20035;-69
2021/04/27 01:28:04;;;;;;;4.05;1.45;;;5.80;59.00;;;;;;4965710;28;20116;-70
2021/04/27 01:30:37;;;;;;;2.63;1.23;;;5.70;59.30;;;;;;4965327;28;20054;-69
2021/04/27 01:33:05;;;;;;;2.55;1.35;;;5.70;59.00;;;;;;4965902;28;20630;-70
2021/04/27 01:35:31;;;;;;;2.30;1.08;;;5.70;59.10;;;;;;4966265;28;20045;-69
2021/04/27 01:37:57;;;;;;;2.35;1.27;;;5.70;59.10;;;;;;4964318;28;20062;-69
2021/04/27 01:40:24;;;;;;;2.28;1.30;;;5.70;59.30;;;;;;4965775;28;20042;-69
2021/04/27 01:42:50;;;;;;;3.15;1.42;;;5.70;59.60;;;;;;4984031;23;20051;-66
2021/04/27 01:45:16;;;;;;;3.40;1.10;;;5.70;59.70;;;;;;4948922;28;20086;-66
2021/04/27 01:47:41;;;;;;;2.08;1.25;;;5.70;59.40;;;;;;4951919;28;20390;-67
2021/04/27 01:50:09;;;;;;;2.45;1.30;;;5.70;59.40;;;;;;4949827;28;20108;-66
2021/04/27 01:52:36;;;;;;;2.47;1.23;;;5.70;59.70;;;;;;4949388;28;20070;-66
2021/04/27 01:55:07;;;;;;;3.60;1.42;;;5.70;59.60;;;;;;4945493;28;20385;-66
2021/04/27 01:57:34;;;;;;;2.30;1.33;;;5.70;59.80;;;;;;4944507;28;20027;-66
2021/04/27 02:00:00;;;;;;;3.75;1.00;;;5.70;59.90;;;;;;4943832;28;20023;-67
2021/04/27 02:02:25;;;;;;;3.05;1.50;;;5.70;59.90;;;;;;4943963;28;20086;-66
2021/04/27 02:04:51;;;;;;;2.10;1.10;;;5.70;59.70;;;;;;4944106;28;20122;-66
2021/04/27 02:07:17;;;;;;;3.75;1.38;;;5.60;59.80;;;;;;4943567;28;20031;-67
2021/04/27 02:09:43;;;;;;;3.45;1.40;;;5.60;60.10;;;;;;4944474;28;20055;-67
2021/04/27 02:12:09;;;;;;;1.67;1.13;;;5.60;60.40;;;;;;4944739;28;20034;-67
2021/04/27 02:14:35;;;;;;;2.72;1.35;;;5.60;60.40;;;;;;4945156;28;20023;-66
2021/04/27 02:17:21;;;;;;;4.47;1.10;;;5.50;60.50;;;;;;4943209;28;20032;-66
2021/04/27 02:19:53;;;;;;;4.05;1.27;;;5.50;60.80;;;;;;4942733;28;20030;-66
2021/04/27 02:22:23;;;;;;;2.83;1.00;;;5.50;61.20;;;;;;4944355;28;20094;-66
2021/04/27 02:24:50;;;;;;;2.53;1.42;;;5.50;61.00;;;;;;4943930;28;20040;-66
2021/04/27 02:27:16;;;;;;;2.33;1.15;;;5.50;61.20;;;;;;4942955;28;20028;-66
2021/04/27 02:29:41;;;;;;;3.15;1.30;;;5.50;61.20;;;;;;4945284;28;20038;-67
2021/04/27 02:32:08;;;;;;;2.47;1.52;;;5.40;61.40;;;;;;4943962;28;20035;-66
2021/04/27 02:34:34;;;;;;;3.10;1.40;;;5.40;61.60;;;;;;4942844;28;20100;-67
2021/04/27 02:37:00;;;;;;;3.42;1.27;;;5.40;61.80;;;;;;4943198;28;20038;-67
2021/04/27 02:39:25;;;;;;;2.55;1.10;;;5.30;61.70;;;;;;4943433;28;20035;-66
2021/04/27 02:41:52;;;;;;;1.98;1.65;;;5.30;61.50;;;;;;4944130;28;20031;-66
2021/04/27 02:44:18;;;;;;;2.38;1.10;;;5.30;61.80;;;;;;4943455;28;20047;-67
2021/04/27 02:46:45;;;;;;;2.20;1.23;;;5.30;61.50;;;;;;4945098;28;20711;-66
2021/04/27 02:49:11;;;;;;;2.75;1.27;;;5.20;61.50;;;;;;4944183;28;20033;-67
2021/04/27 02:51:37;;;;;;;3.22;1.27;;;5.20;61.70;;;;;;4942244;28;20028;-67
2021/04/27 02:54:04;;;;;;;1.38;0.95;;;5.20;61.90;;;;;;4958240;28;20106;-66
2021/04/27 02:56:31;;;;;;;2.70;1.17;;;5.20;61.90;;;;;;4943309;28;20075;-66
2021/04/27 02:58:56;;;;;;;3.28;1.40;;;5.20;62.00;;;;;;4943471;28;20028;-67
2021/04/27 03:01:22;;;;;;;1.83;1.10;;;5.10;61.80;;;;;;4943526;28;20082;-66
2021/04/27 03:03:48;;;;;;;4.50;1.33;;;5.10;61.90;;;;;;4944668;28;20498;-66
2021/04/27 03:06:14;;;;;;;2.40;1.00;;;5.10;62.00;;;;;;4942611;28;20097;-66
2021/04/27 03:08:39;;;;;;;5.22;1.67;;;5.10;62.20;;;;;;4944525;28;20382;-66
2021/04/27 03:11:05;;;;;;;3.00;1.33;;;5.10;62.40;;;;;;4942910;28;20031;-66
2021/04/27 03:13:31;;;;;;;2.85;1.27;;;5.10;62.50;;;;;;4944004;28;20040;-67
2021/04/27 03:15:56;;;;;;;2.75;1.30;;;5.10;62.70;;;;;;4943418;28;20378;-67
2021/04/27 03:18:22;;;;;;;3.25;1.20;;;5.10;62.80;;;;;;4942993;28;20031;-67
2021/04/27 03:20:48;;;;;;;1.98;1.20;;;5.10;62.80;;;;;;4941154;28;20105;-67
2021/04/27 03:23:14;;;;;;;6.13;1.45;;;5.10;62.90;;;;;;4944408;28;20133;-66
2021/04/27 03:25:40;;;;;;;3.50;1.25;;;5.00;62.90;;;;;;4940466;29;20063;-67
2021/04/27 03:28:08;;;;;;;3.30;1.60;;;5.00;63.30;;;;;;4943180;29;20393;-67
2021/04/27 03:30:35;;;;;;;3.75;1.60;;;5.00;63.30;;;;;;4943715;29;20024;-67
2021/04/27 03:33:01;;;;;;;2.83;1.33;;;5.00;63.50;;;;;;4938833;28;20036;-67
2021/04/27 03:35:27;;;;;;;3.13;1.45;;;4.90;63.60;;;;;;4938837;28;20054;-66
2021/04/27 03:37:53;;;;;;;2.85;1.15;;;4.90;63.30;;;;;;4942429;29;20043;-67
2021/04/27 03:40:19;;;;;;;3.28;1.20;;;4.90;63.20;;;;;;4942686;29;20046;-67
2021/04/27 03:42:45;;;;;;;3.00;1.27;;;4.90;63.20;;;;;;4944396;29;20393;-67
2021/04/27 03:45:17;;;;;;;2.95;1.42;;;4.90;63.40;;;;;;4944523;29;20020;-67
2021/04/27 03:47:44;;;;;;;3.50;1.30;;;4.90;63.70;;;;;;4943295;29;20034;-67
2021/04/27 03:50:14;;;;;;;3.53;1.42;;;4.80;64.00;;;;;;4942401;28;20023;-66
2021/04/27 03:52:40;;;;;;;3.38;1.42;;;4.90;64.10;;;;;;4940693;29;20031;-67
2021/04/27 03:55:07;;;;;;;4.03;1.58;;;4.90;63.60;;;;;;4944489;28;20030;-66
2021/04/27 03:57:32;;;;;;;2.83;1.30;;;4.80;63.60;;;;;;4942259;28;20059;-67
2021/04/27 03:59:58;;;;;;;3.22;1.25;;;4.80;63.60;;;;;;4942103;29;20066;-66
2021/04/27 04:02:24;;;;;;;3.63;1.30;;;4.80;63.90;;;;;;4941303;28;20116;-67
2021/04/27 04:04:50;;;;;;;3.17;1.38;;;4.80;63.90;;;;;;4941393;28;20039;-67
2021/04/27 04:07:16;;;;;;;4.15;1.45;;;4.80;64.00;;;;;;4941358;29;20052;-67
2021/04/27 04:09:42;;;;;;;3.58;1.15;;;4.80;64.10;;;;;;4942211;29;20035;-67
2021/04/27 04:12:08;;;;;;;3.60;1.30;;;4.80;64.00;;;;;;4942877;29;20028;-67
2021/04/27 04:14:36;;;;;;;2.65;1.27;;;4.80;64.00;;;;;;4942581;28;20095;-67
2021/04/27 04:17:02;;;;;;;3.03;1.40;;;4.70;64.00;;;;;;4941766;29;20039;-68
2021/04/27 04:19:28;;;;;;;2.40;1.27;;;4.70;64.00;;;;;;4943256;29;20121;-67
2021/04/27 04:21:54;;;;;;;1.95;1.13;;;4.70;64.20;;;;;;4943694;28;20070;-67
2021/04/27 04:24:20;;;;;;;3.95;1.33;;;4.70;64.20;;;;;;4937198;29;20048;-67
2021/04/27 04:26:46;;;;;;;2.58;1.05;;;4.70;64.30;;;;;;4943452;29;20119;-67
2021/04/27 04:29:12;;;;;;;3.60;1.30;;;4.70;64.20;;;;;;4941645;29;20174;-67
2021/04/27 04:31:38;;;;;;;2.97;1.20;;;4.80;64.20;;;;;;4942694;29;20062;-67
2021/04/27 04:34:04;;;;;;;2.50;1.10;;;4.80;64.20;;;;;;4943523;29;20531;-66
2021/04/27 04:36:36;;;;;;;4.00;1.33;;;4.80;64.40;;;;;;4942842;29;20028;-67
2021/04/27 04:39:03;;;;;;;3.75;1.38;;;4.80;64.40;;;;;;4943538;29;20565;-67
2021/04/27 04:41:29;;;;;;;3.75;1.90;;;4.80;64.50;;;;;;4940327;28;20118;-67
2021/04/27 04:43:54;;;;;;;4.72;1.73;;;4.90;64.40;;;;;;4942021;28;20071;-67
2021/04/27 04:46:20;;;;;;;2.95;1.45;;;4.90;64.20;;;;;;4942307;28;20114;-68
2021/04/27 04:48:47;;;;;;;2.47;1.38;;;4.90;64.30;;;;;;4943052;28;20115;-67
2021/04/27 04:51:13;;;;;;;3.42;1.30;;;4.90;64.30;;;;;;4941344;28;20027;-67
2021/04/27 04:53:39;;;;;;;2.92;1.50;;;4.90;64.50;;;;;;4940836;29;20490;-67
2021/04/27 04:56:05;;;;;;;4.40;1.33;;;4.80;64.70;;;;;;4942490;29;20125;-67
2021/04/27 04:58:31;;;;;;;3.35;1.10;;;4.90;64.70;;;;;;4942535;29;20063;-68
2021/04/27 05:00:57;;;;;;;2.78;1.40;;;4.90;64.50;;;;;;4939026;28;20482;-67
2021/04/27 05:03:24;;;;;;;2.88;1.45;;;4.90;64.60;;;;;;4942546;28;20102;-67
2021/04/27 05:05:50;;;;;;;5.35;1.30;;;4.90;64.60;;;;;;4942473;29;20047;-67
2021/04/27 05:08:22;;;;;;;5.20;1.50;;;5.00;64.60;;;;;;4941748;29;20384;-67
2021/04/27 05:10:48;;;;;;;3.67;1.45;;;5.00;64.80;;;;;;4942171;28;20023;-67
2021/04/27 05:13:15;;;;;;;3.60;1.77;;;5.00;64.70;;;;;;4943737;29;20035;-67
2021/04/27 05:15:40;;;;;;;5.05;1.42;;;5.00;64.70;;;;;;4946654;29;20035;-67
2021/04/27 05:18:07;;;;;;;3.60;1.40;;;5.00;64.90;;;;;;4947792;28;20039;-67
2021/04/27 05:20:33;;;;;;;4.55;1.33;;;5.00;64.80;;;;;;4948072;28;20031;-67
2021/04/27 05:23:01;;;;;;;3.17;1.40;;;5.00;64.70;;;;;;4945468;28;20515;-67
2021/04/27 05:25:31;;;;;;;4.47;1.42;;;5.00;64.50;;;;;;4948856;29;20461;-66
2021/04/27 05:27:56;;;;;;;3.03;1.17;;;5.10;64.40;;;;;;4943877;29;20039;-66
2021/04/27 05:30:23;;;;;;;1.98;1.17;;;5.20;64.40;;;;;;4945854;29;20035;-67
2021/04/27 05:32:48;;;;;;;3.60;2.22;;;5.20;64.30;;;;;;4951009;29;20031;-67
2021/04/27 05:35:17;;;;;;;2.45;1.27;;;5.30;64.20;;;;;;4929803;29;20031;-67
2021/04/27 05:37:43;;;;;;;3.58;1.70;;;5.30;64.10;;;;;;4947551;29;20027;-67
2021/04/27 05:40:10;;;;;;;1.80;1.08;;;5.30;64.00;;;;;;4949694;29;20038;-68
2021/04/27 05:42:36;;;;;;;3.15;1.75;;;5.40;63.80;;;;;;4946721;28;20043;-67
2021/04/27 05:45:03;;;;;;;2.30;1.25;;;5.50;63.90;;;;;;4943958;29;20102;-67
2021/04/27 05:47:29;;;;;;;6.65;1.77;;;5.50;64.00;;;;;;4947225;28;20393;-70
2021/04/27 05:49:55;;;;;;;5.57;1.60;;;5.60;63.90;;;;;;4949868;28;20039;-67
2021/04/27 05:52:21;;;;;;;6.03;1.88;;;5.60;63.90;;;;;;4961562;28;20031;-67
2021/04/27 05:54:47;;;;;;;4.90;1.60;;;5.60;63.60;;;;;;4947566;28;20027;-67
2021/04/27 05:57:12;;;;;;;5.47;1.60;;;5.70;63.50;;;;;;4948736;29;20032;-67
2021/04/27 05:59:38;;;;;;;7.93;2.03;;;5.70;63.30;;;;;;4947926;29;20111;-67
2021/04/27 06:02:04;;;;;;;6.93;1.80;;;5.70;63.10;;;;;;4946970;28;20031;-67
2021/04/27 06:04:31;;;;;;;3.53;1.33;;;5.70;63.40;;;;;;4949963;28;20090;-67
2021/04/27 06:06:56;;;;;;;4.30;1.48;;;5.80;63.10;;;;;;4949344;29;20481;-68
2021/04/27 06:09:23;;;;;;;5.07;1.67;;;5.80;62.90;;;;;;4946963;29;20034;-67
2021/04/27 06:11:49;;;;;;;5.32;1.65;;;5.90;62.80;;;;;;4946855;29;20086;-68
2021/04/27 06:14:15;;;;;;;5.07;1.65;;;5.90;62.70;;;;;;4945891;29;20035;-68
2021/04/27 06:16:41;;;;;;;3.92;1.60;;;6.00;62.40;;;;;;4944695;28;20125;-67
2021/04/27 06:19:06;;;;;;;3.20;1.40;;;6.00;62.40;;;;;;4948462;29;20086;-68
2021/04/27 06:21:33;;;;;;;3.05;1.45;;;6.10;62.20;;;;;;4944351;28;20580;-67
2021/04/27 06:23:59;;;;;;;4.03;1.50;;;6.10;62.10;;;;;;4944774;28;20520;-67
2021/04/27 06:26:25;;;;;;;6.57;2.00;;;6.10;62.00;;;;;;4938781;28;20035;-67
2021/04/27 06:28:51;;;;;;;4.22;1.55;;;6.20;61.90;;;;;;4945882;29;20040;-68
2021/04/27 06:31:20;;;;;;;4.85;1.50;;;6.20;61.90;;;;;;4945945;28;20103;-68
2021/04/27 06:33:46;;;;;;;6.43;1.65;;;6.20;61.70;;;;;;4946213;28;20042;-67
2021/04/27 06:36:13;;;;;;;4.57;1.40;;;6.30;61.60;;;;;;4943856;28;20027;-67
2021/04/27 06:38:39;;;;;;;3.95;2.03;;;6.30;61.70;;;;;;4946697;29;20038;-67
2021/04/27 06:41:04;;;;;;;6.45;1.83;;;6.40;62.00;;;;;;4949138;28;20036;-67
2021/04/27 06:43:34;;;;;;;7.00;2.22;;;6.40;61.50;;;;;;4947805;28;20090;-67
2021/04/27 06:46:00;;;;;;;3.90;1.60;;;6.40;61.60;;;;;;4945456;29;20038;-66
2021/04/27 06:48:26;;;;;;;4.72;1.50;;;6.40;61.40;;;;;;4945101;28;20035;-66
2021/04/27 06:50:51;;;;;;;5.20;1.90;;;6.50;60.80;;;;;;4947518;28;20114;-67
2021/04/27 06:53:17;;;;;;;5.70;1.70;;;6.50;60.80;;;;;;4943103;29;20039;-66
2021/04/27 06:55:43;;;;;;;5.95;1.95;;;6.60;61.20;;;;;;4943409;29;20027;-66
2021/04/27 06:58:11;;;;;;;5.70;1.77;;;6.60;60.60;;;;;;4946659;28;20476;-66
2021/04/27 07:00:38;;;;;;;4.35;1.65;;;6.70;60.30;;;;;;4943126;28;20089;-67
2021/04/27 07:03:04;;;;;;;6.65;1.70;;;6.70;60.10;;;;;;4938401;28;20039;-68
2021/04/27 07:05:29;;;;;;;5.45;1.67;;;6.80;59.80;;;;;;4943891;28;20036;-68
2021/04/27 07:07:56;;;;;;;6.07;1.60;;;6.80;60.10;;;;;;4943810;29;20418;-67
2021/04/27 07:10:22;;;;;;;5.38;1.75;;;7.10;60.00;;;;;;4942255;29;20033;-68
2021/04/27 07:12:48;;;;;;;5.28;1.80;;;7.20;58.80;;;;;;4944290;28;20535;-68
2021/04/27 07:15:20;;;;;;;3.05;1.58;;;7.20;58.80;;;;;;4944501;28;20097;-68
2021/04/27 07:17:46;;;;;;;3.13;1.52;;;7.20;58.40;;;;;;4946340;28;20034;-68
2021/04/27 07:20:13;;;;;;;6.68;1.70;;;7.20;58.20;;;;;;4942553;28;20165;-68
2021/04/27 07:22:39;;;;;;;5.65;1.67;;;7.30;57.70;;;;;;4943746;28;20074;-68
2021/04/27 07:25:07;;;;;;;5.32;1.58;;;7.30;58.00;;;;;;4943589;28;20453;-68
2021/04/27 07:27:33;;;;;;;5.50;1.50;;;7.30;58.00;;;;;;4941513;28;20453;-68
2021/04/27 07:29:58;;;;;;;2.28;1.25;;;7.40;57.80;;;;;;4944298;28;20051;-69
2021/04/27 07:32:24;;;;;;;3.22;1.13;;;7.40;58.00;;;;;;4943321;28;20043;-69
2021/04/27 07:34:50;;;;;;;2.58;1.38;;;7.40;58.20;;;;;;4940774;28;20024;-69
2021/04/27 07:37:18;;;;;;;3.20;1.08;;;7.50;58.60;;;;;;4942252;29;20034;-69
2021/04/27 07:39:44;;;;;;;3.47;1.45;;;7.60;58.00;;;;;;4945206;28;20059;-69
2021/04/27 07:42:10;;;;;;;4.97;1.27;;;7.60;57.80;;;;;;4945529;28;20019;-69
2021/04/27 07:44:44;;;;;;;4.07;1.42;;;7.60;57.80;;;;;;4946418;29;20545;-71
2021/04/27 07:47:10;;;;;;;4.07;1.58;;;7.70;57.40;;;;;;4962353;28;20043;-70
2021/04/27 07:49:39;;;;;;;3.72;1.40;;;7.70;57.20;;;;;;4963843;28;20019;-74
2021/04/27 07:52:05;;;;;;;5.35;1.27;;;7.70;57.30;;;;;;4961953;28;20138;-71
2021/04/27 07:54:31;;;;;;;2.67;1.10;;;7.80;57.30;;;;;;4961897;28;20094;-69
2021/04/27 07:56:56;;;;;;;4.80;1.73;;;7.80;57.20;;;;;;4961567;28;20050;-70
2021/04/27 07:59:22;;;;;;;3.63;1.63;;;7.90;56.60;;;;;;4962640;28;20039;-69
2021/04/27 08:01:48;;;;;;;2.85;1.42;;;8.00;55.70;;;;;;4957995;28;20078;-70
2021/04/27 08:04:15;;;;;;;5.82;1.55;;;8.00;55.80;;;;;;4961424;28;20519;-73
2021/04/27 08:06:41;;;;;;;4.13;1.60;;;8.00;55.70;;;;;;4960443;28;20093;-71
2021/04/27 08:09:08;;;;;;;2.67;1.15;;;8.10;55.70;;;;;;4961581;28;20519;-70
2021/04/27 08:11:35;;;;;;;5.05;1.67;;;8.10;54.60;;;;;;4961232;28;20178;-73
2021/04/27 08:14:02;;;;;;;3.42;1.52;;;8.20;54.90;;;;;;4963024;28;20035;-73
2021/04/27 08:16:28;;;;;;;5.03;1.40;;;8.20;54.60;;;;;;4960709;28;20046;-70
2021/04/27 08:18:54;;;;;;;3.58;1.27;;;8.30;54.30;;;;;;4960976;28;20043;-69
2021/04/27 08:21:20;;;;;;;3.45;1.20;;;8.30;54.20;;;;;;4961768;28;20042;-69
2021/04/27 08:23:46;;;;;;;3.58;1.40;;;8.40;53.70;;;;;;4961002;28;20042;-70
2021/04/27 08:26:13;;;;;;;4.60;1.17;;;8.40;54.10;;;;;;4978530;28;20026;-71
2021/04/27 08:28:39;;;;;;;2.97;1.20;;;8.40;54.80;;;;;;4961949;28;20030;-70
2021/04/27 08:31:06;;;;;;;4.07;1.70;;;8.50;53.90;;;;;;4960194;28;20125;-69
2021/04/27 08:33:32;;;;;;;2.42;1.30;;;8.50;53.90;;;;;;4960001;28;20358;-70
2021/04/27 08:35:58;;;;;;;2.75;1.30;;;8.50;54.10;;;;;;4957247;28;20392;-69
2021/04/27 08:38:24;;;;;;;4.57;1.40;;;8.50;53.50;;;;;;4959676;28;20468;-70
2021/04/27 08:40:50;;;;;;;4.85;1.48;;;8.50;53.00;;;;;;4960042;28;20047;-70
2021/04/27 08:43:17;;;;;;;4.03;1.63;;;8.50;53.70;;;;;;4961872;28;20042;-70
2021/04/27 08:45:43;;;;;;;6.10;1.23;;;8.50;53.60;;;;;;4961113;28;20399;-70
2021/04/27 08:48:11;;;;;;;7.38;1.33;;;8.60;53.80;;;;;;4965795;28;20381;-70
2021/04/27 08:50:37;;;;;;;3.88;1.13;;;8.70;53.20;;;;;;4963423;28;20026;-70
2021/04/27 08:53:04;;;;;;;3.80;1.23;;;8.70;53.00;;;;;;4965223;28;20039;-71
2021/04/27 08:55:30;;;;;;;2.35;1.00;;;8.80;52.60;;;;;;4965387;28;20031;-70
2021/04/27 08:57:55;;;;;;;3.67;1.00;;;8.90;53.00;;;;;;4964594;28;20042;-69
2021/04/27 09:00:24;;;;;;;1.88;0.90;;;8.90;51.80;;;;;;4965114;28;20041;-71
2021/04/27 09:02:59;;;;;;;2.08;1.20;;;9.00;51.10;;;;;;4965096;28;20050;-71
2021/04/27 09:05:28;;;;;;;2.00;0.90;;;9.10;50.10;;;;;;4962202;28;20101;-71
2021/04/27 09:07:55;;;;;;;2.95;1.50;;;9.10;50.00;;;;;;4964340;28;20037;-70
2021/04/27 09:10:43;;;;;;;4.07;1.20;;;9.10;50.20;;;;;;4964841;28;20389;-70
2021/04/27 09:13:19;;;;;;;4.13;1.40;;;9.20;48.70;;;;;;4967186;28;20054;-69
2021/04/27 09:15:53;;;;;;;4.45;1.67;;;9.20;48.50;;;;;;4964181;28;20393;-70
2021/04/27 09:18:36;;;;;;;3.05;1.42;;;9.30;47.80;;;;;;4963997;28;20030;-71
2021/04/27 09:21:09;;;;;;;2.40;1.30;;;9.30;47.70;;;;;;4964831;28;20042;-69
2021/04/27 09:23:37;;;;;;;3.33;1.20;;;9.40;46.80;;;;;;4967085;28;20034;-69
2021/04/27 09:26:16;;;;;;;3.53;1.10;;;9.40;46.90;;;;;;4964616;28;20061;-71
2021/04/27 09:28:51;;;;;;;2.90;1.23;;;9.50;46.60;;;;;;4964738;28;20118;-69
2021/04/27 09:31:21;;;;;;;4.05;1.15;;;9.50;46.90;;;;;;4962575;28;20081;-70
2021/04/27 09:33:51;;;;;;;6.22;1.40;;;9.60;46.40;;;;;;4966763;28;20039;-70
2021/04/27 09:36:22;;;;;;;3.70;1.30;;;9.60;46.00;;;;;;4964887;28;20035;-70
2021/04/27 09:38:50;;;;;;;6.78;3.83;;;9.70;44.90;;;;;;4980890;28;20089;-70
2021/04/27 09:41:16;;;;;;;2.63;1.33;;;9.70;45.40;;;;;;4965864;28;20045;-70
2021/04/27 09:43:45;;;;;;;2.15;1.27;;;9.80;45.60;;;;;;4964484;28;20027;-70
2021/04/27 09:46:31;;;;;;;1.90;0.82;;;9.80;44.60;;;;;;4964601;28;20046;-70
2021/04/27 09:49:01;;;;;;;2.63;0.75;;;9.90;44.40;;;;;;4963596;28;20117;-70
2021/04/27 09:51:33;;;;;;;2.88;1.52;;;9.90;44.60;;;;;;4964042;28;20039;-70
2021/04/27 09:54:02;;;;;;;4.07;1.10;;;9.90;44.80;;;;;;4966306;28;20329;-70
2021/04/27 09:56:49;;;;;;;1.73;0.90;;;9.90;43.70;;;;;;4963973;28;20063;-70
2021/04/27 09:59:21;;;;;;;1.98;0.70;;;9.90;43.90;;;;;;4965694;28;20121;-69
2021/04/27 10:01:49;;;;;;;2.50;0.85;;;9.90;43.00;;;;;;4962030;28;20030;-69
2021/04/27 10:04:15;;;;;;;2.83;0.95;;;9.90;42.90;;;;;;4964191;28;20384;-70
2021/04/27 10:06:43;;;;;;;2.15;1.10;;;10.00;43.00;;;;;;4963075;28;20031;-69
2021/04/27 10:09:10;;;;;;;2.50;1.20;;;9.90;43.30;;;;;;4962416;28;20042;-70
2021/04/27 10:11:39;;;;;;;2.60;1.27;;;10.00;43.40;;;;;;4964181;28;20031;-70
2021/04/27 10:14:07;;;;;;;4.50;1.20;;;10.10;43.70;;;;;;4979809;28;20027;-69
2021/04/27 10:16:42;;;;;;;2.75;0.90;;;10.20;43.00;;;;;;4961116;28;20082;-69
2021/04/27 10:19:09;;;;;;;3.45;1.20;;;10.20;43.60;;;;;;4963754;28;20027;-70
2021/04/27 10:21:37;;;;;;;2.10;1.17;;;10.20;42.60;;;;;;4944340;28;20512;-69
2021/04/27 10:24:07;;;;;;;1.95;0.80;;;10.20;42.90;;;;;;4961195;28;20046;-70
2021/04/27 10:26:35;;;;;;;2.97;1.00;;;10.30;41.60;;;;;;4957434;28;20031;-71
2021/04/27 10:29:07;;;;;;;1.63;0.70;;;10.20;40.10;;;;;;4959790;28;20126;-71
2021/04/27 10:31:35;;;;;;;1.65;0.93;;;10.30;42.00;;;;;;4961002;28;20082;-70
2021/04/27 10:34:08;;;;;;;2.67;0.88;;;10.40;41.30;;;;;;4961489;28;20366;-71
2021/04/27 10:36:38;;;;;;;1.90;0.73;;;10.50;41.50;;;;;;4961398;28;20496;-69
2021/04/27 10:39:06;;;;;;;3.53;1.25;;;10.60;41.00;;;;;;4962380;28;20045;-72
2021/04/27 10:41:58;;;;;;;1.65;0.70;;;10.70;39.40;;;;;;4961736;28;20444;-72
2021/04/27 10:44:25;;;;;;;1.00;0.57;;;10.90;42.50;;;;;;4961999;28;20038;-73
2021/04/27 10:47:01;;;;;;;1.13;0.75;;;11.20;41.40;;;;;;4960039;28;20035;-73
2021/04/27 10:49:29;;;;;;;5.43;1.08;;;11.10;40.60;;;;;;4961529;28;20062;-73
2021/04/27 10:51:55;;;;;;;2.85;0.73;;;11.10;39.40;;;;;;4961053;28;20082;-72
2021/04/27 10:54:32;;;;;;;3.50;1.58;;;11.00;40.30;;;;;;4962473;28;20045;-73
2021/04/27 10:57:04;;;;;;;1.90;0.80;;;11.00;38.70;;;;;;4962402;28;20445;-76
2021/04/27 10:59:49;;;;;;;1.65;0.80;;;11.10;38.50;;;;;;4960653;28;20079;-72
2021/04/27 11:02:19;;;;;;;2.20;0.90;;;11.00;39.30;;;;;;4960876;28;20027;-72
2021/04/27 11:04:49;;;;;;;1.83;0.88;;;11.10;39.80;;;;;;4960583;28;20378;-71
2021/04/27 11:07:24;;;;;;;1.10;0.68;;;11.20;38.40;;;;;;4961565;28;20512;-73
2021/04/27 11:10:01;;;;;;;2.92;0.85;;;11.50;37.80;;;;;;4961317;28;20046;-70
2021/04/27 11:12:53;;;;;;;3.17;1.15;;;11.80;39.00;;;;;;4977482;28;20118;-70
2021/04/27 11:15:18;;;;;;;;;;;12.40;39.60;;;;;;4958701;28;20033;-72
2021/04/27 11:18:19;;;;;;;3.42;1.25;;;13.50;34.50;;;;;;4949331;28;19918;-71
2021/04/27 11:21:09;;;;;;;1.75;0.70;;;15.30;34.30;;;;;;4970557;28;20118;-71
2021/04/27 11:23:39;;;;;;;3.85;0.73;;;16.90;30.30;;;;;;4973150;28;20035;-70
2021/04/27 11:26:33;;;;;;;2.90;0.60;;;18.00;29.50;;;;;;4959047;28;20512;-73
2021/04/27 11:29:18;;;;;;;1.40;0.90;;;19.00;28.30;;;;;;4953318;28;20081;-70
2021/04/27 11:32:08;;;;;;;2.15;1.08;;;19.60;26.30;;;;;;4955444;28;20033;-73
2021/04/27 11:35:14;;;;;;;14.48;9.73;;;20.00;27.60;;;;;;4958040;28;20146;-70
2021/04/27 11:37:44;;;;;;;18.35;8.75;;;20.30;24.90;;;;;;4953401;28;20066;-70
2021/04/27 11:40:29;;;;;;;12.32;4.53;;;20.40;26.30;;;;;;4960588;28;20038;-72
2021/04/27 11:43:00;;;;;;;20.75;10.18;;;20.30;26.60;;;;;;4959450;28;20027;-70
2021/04/27 11:45:29;;;;;;;35.13;15.85;;;20.50;27.30;;;;;;4959142;28;20041;-71
2021/04/27 11:47:58;;;;;;;12.18;5.90;;;20.90;26.60;;;;;;4960484;28;20027;-70
2021/04/27 11:50:26;;;;;;;7.72;3.30;;;21.00;25.40;;;;;;4961050;28;20046;-70
2021/04/27 11:52:54;;;;;;;4.53;3.05;;;21.10;25.40;;;;;;4958858;28;20031;-70
2021/04/27 11:55:33;;;;;;;3.65;1.58;;;20.80;26.90;;;;;;4959711;28;20039;-69
2021/04/27 11:58:05;;;;;;;2.50;1.20;;;20.80;27.10;;;;;;4960235;28;20050;-70
2021/04/27 12:00:34;;;;;;;3.03;0.90;;;20.40;27.30;;;;;;4959377;28;20487;-70
2021/04/27 12:03:13;;;;;;;2.95;1.20;;;20.10;25.20;;;;;;4959792;28;20035;-70
2021/04/27 12:05:39;;;;;;;3.10;1.17;;;19.40;27.90;;;;;;4959571;28;20035;-71
2021/04/27 12:08:24;;;;;;;1.25;0.82;;;19.10;27.30;;;;;;4960748;28;20029;-69
2021/04/27 12:11:05;;;;;;;3.78;1.05;;;18.90;26.60;;;;;;4959904;28;20034;-70
2021/04/27 12:13:31;;;;;;;1.00;0.67;;;18.60;25.80;;;;;;4961339;28;20122;-69
2021/04/27 12:16:15;;;;;;;2.20;1.00;;;18.60;27.80;;;;;;4960301;28;20322;-71
2021/04/27 12:18:53;;;;;;;1.70;0.80;;;18.70;26.10;;;;;;4958736;28;20062;-70
2021/04/27 12:21:31;;;;;;;2.97;1.23;;;18.70;27.00;;;;;;4962506;28;20031;-70
2021/04/27 12:24:14;;;;;;;1.98;1.00;;;18.90;26.80;;;;;;4976814;28;20100;-69
2021/04/27 12:26:49;;;;;;;2.33;1.05;;;19.10;26.10;;;;;;4960349;28;20023;-70
2021/04/27 12:29:16;;;;;;;172.32;106.05;;;19.30;25.70;;;;;;4960327;28;20121;-71
2021/04/27 12:31:43;;;;;;;43.92;28.80;;;19.30;24.40;;;;;;4953837;28;20035;-71
2021/04/27 12:34:18;;;;;;;90.03;63.97;;;19.30;24.00;;;;;;4957941;28;20117;-71
2021/04/27 12:36:47;;;;;;;8.10;4.70;;;19.40;23.60;;;;;;4954382;28;20039;-71
2021/04/27 12:39:22;;;;;;;1.10;0.88;;;19.60;25.10;;;;;;4960488;28;20027;-69
2021/04/27 12:41:49;;;;;;;1.55;0.70;;;20.10;25.80;;;;;;4959100;28;20401;-70
2021/04/27 12:44:28;;;;;;;1.55;0.98;;;20.30;24.40;;;;;;4968947;28;20035;-69
2021/04/27 12:46:55;;;;;;;2.05;0.80;;;20.50;24.30;;;;;;4956496;28;20050;-72
2021/04/27 12:49:29;;;;;;;1.92;0.90;;;20.70;23.70;;;;;;4958386;28;20045;-70
2021/04/27 12:52:10;;;;;;;1.80;0.77;;;21.00;23.50;;;;;;4955618;28;20703;-70
2021/04/27 12:54:37;;;;;;;3.63;1.00;;;21.10;22.90;;;;;;4955986;28;20084;-70
2021/04/27 12:57:04;;;;;;;1.80;0.60;;;21.30;23.60;;;;;;4955267;28;20678;-69
2021/04/27 12:59:29;;;;;;;2.15;0.70;;;21.50;23.40;;;;;;4955664;28;20034;-71
2021/04/27 13:02:01;;;;;;;1.35;0.73;;;21.70;22.30;;;;;;4957324;28;20031;-72
2021/04/27 13:04:31;;;;;;;2.63;0.80;;;21.70;22.30;;;;;;4960068;28;20527;-71
2021/04/27 13:06:57;;;;;;;1.95;1.00;;;21.80;21.50;;;;;;4957152;28;20055;-72